Terminal Aerodrome Forecast
Issued by NWS Memphis, TN

Current Version | Previous Version | Text Only | Print | Product List | Glossary On
Versions: 1 2 3 4 5 6 7 8 9 10 11 12 13 14 15 16 17 18 19 20 21 22 23
000
FTUS44 KMEG 200500
TAFMKL
TAF
KMKL 200530Z 2006/2106 21005KT P6SM SKC
     FM201000 21005KT 5SM BR SKC
     FM201300 24008KT P6SM FEW050
     FM210100 20004KT P6SM SKC=

USA.gov is the U.S. government's official web portal to all federal, state and local government web resources and services.